sensor_id;sensor_type;location;lat;lon;timestamp;pressure;altitude;pressure_sealevel;temperature
28305;BMP280;15569;42.652;23.040;2023-02-24T00:01:52;92917.78;;;10.19
28305;BMP280;15569;42.652;23.040;2023-02-24T00:04:24;92920.47;;;10.33
28305;BMP280;15569;42.652;23.040;2023-02-24T00:06:50;92926.03;;;10.49
28305;BMP280;15569;42.652;23.040;2023-02-24T00:09:18;92924.00;;;10.49
28305;BMP280;15569;42.652;23.040;2023-02-24T00:11:58;92907.81;;;10.38
28305;BMP280;15569;42.652;23.040;2023-02-24T00:14:29;92919.66;;;10.30
28305;BMP280;15569;42.652;23.040;2023-02-24T00:16:55;92903.97;;;10.29
28305;BMP280;15569;42.652;23.040;2023-02-24T00:19:24;92916.44;;;10.48
28305;BMP280;15569;42.652;23.040;2023-02-24T00:21:50;92921.06;;;10.45
28305;BMP280;15569;42.652;23.040;2023-02-24T00:24:16;92913.72;;;10.48
28305;BMP280;15569;42.652;23.040;2023-02-24T00:26:43;92914.53;;;10.37
28305;BMP280;15569;42.652;23.040;2023-02-24T00:29:11;92914.03;;;10.40
28305;BMP280;15569;42.652;23.040;2023-02-24T00:31:37;92892.78;;;10.37
28305;BMP280;15569;42.652;23.040;2023-02-24T00:34:06;92905.88;;;10.54
28305;BMP280;15569;42.652;23.040;2023-02-24T00:36:32;92898.63;;;10.45
28305;BMP280;15569;42.652;23.040;2023-02-24T00:39:04;92892.00;;;10.48
28305;BMP280;15569;42.652;23.040;2023-02-24T00:41:36;92897.25;;;10.44
28305;BMP280;15569;42.652;23.040;2023-02-24T00:44:04;92904.78;;;10.59
28305;BMP280;15569;42.652;23.040;2023-02-24T00:46:33;92900.44;;;10.54
28305;BMP280;15569;42.652;23.040;2023-02-24T00:49:00;92895.22;;;10.58
28305;BMP280;15569;42.652;23.040;2023-02-24T00:51:39;92888.28;;;10.55
28305;BMP280;15569;42.652;23.040;2023-02-24T00:54:06;92893.00;;;10.68
28305;BMP280;15569;42.652;23.040;2023-02-24T00:56:32;92882.69;;;10.80
28305;BMP280;15569;42.652;23.040;2023-02-24T00:58:59;92888.47;;;10.72
28305;BMP280;15569;42.652;23.040;2023-02-24T01:01:28;92876.56;;;10.79
28305;BMP280;15569;42.652;23.040;2023-02-24T01:03:57;92871.44;;;10.72
28305;BMP280;15569;42.652;23.040;2023-02-24T01:06:26;92865.97;;;10.85
28305;BMP280;15569;42.652;23.040;2023-02-24T01:08:54;92873.22;;;10.81
28305;BMP280;15569;42.652;23.040;2023-02-24T01:11:23;92863.28;;;10.72
28305;BMP280;15569;42.652;23.040;2023-02-24T01:14:11;92850.63;;;10.76
28305;BMP280;15569;42.652;23.040;2023-02-24T01:16:37;92873.94;;;10.81
28305;BMP280;15569;42.652;23.040;2023-02-24T01:19:03;92871.50;;;10.87
28305;BMP280;15569;42.652;23.040;2023-02-24T01:21:31;92868.78;;;10.87
28305;BMP280;15569;42.652;23.040;2023-02-24T01:23:57;92855.72;;;10.84
28305;BMP280;15569;42.652;23.040;2023-02-24T01:26:22;92858.50;;;10.86
28305;BMP280;15569;42.652;23.040;2023-02-24T01:28:50;92851.19;;;10.88
28305;BMP280;15569;42.652;23.040;2023-02-24T01:31:16;92850.75;;;10.94
28305;BMP280;15569;42.652;23.040;2023-02-24T01:33:42;92846.94;;;10.85
28305;BMP280;15569;42.652;23.040;2023-02-24T01:36:14;92848.16;;;10.82
28305;BMP280;15569;42.652;23.040;2023-02-24T01:38:40;92851.66;;;10.85
28305;BMP280;15569;42.652;23.040;2023-02-24T01:41:07;92847.78;;;10.74
28305;BMP280;15569;42.652;23.040;2023-02-24T01:43:54;92854.19;;;10.81
28305;BMP280;15569;42.652;23.040;2023-02-24T01:46:20;92857.75;;;10.70
28305;BMP280;15569;42.652;23.040;2023-02-24T01:48:49;92848.88;;;10.69
28305;BMP280;15569;42.652;23.040;2023-02-24T01:51:15;92849.47;;;10.81
28305;BMP280;15569;42.652;23.040;2023-02-24T01:53:41;92839.72;;;10.76
28305;BMP280;15569;42.652;23.040;2023-02-24T01:56:06;92845.66;;;10.73
28305;BMP280;15569;42.652;23.040;2023-02-24T01:58:32;92822.84;;;10.64
28305;BMP280;15569;42.652;23.040;2023-02-24T02:00:58;92843.31;;;10.81
28305;BMP280;15569;42.652;23.040;2023-02-24T02:03:29;92842.53;;;10.78
28305;BMP280;15569;42.652;23.040;2023-02-24T02:06:02;92845.38;;;10.67
28305;BMP280;15569;42.652;23.040;2023-02-24T02:08:28;92837.03;;;10.76
28305;BMP280;15569;42.652;23.040;2023-02-24T02:11:00;92843.22;;;10.79
28305;BMP280;15569;42.652;23.040;2023-02-24T02:13:27;92835.28;;;10.69
28305;BMP280;15569;42.652;23.040;2023-02-24T02:26:57;92845.88;;;10.63
28305;BMP280;15569;42.652;23.040;2023-02-24T02:37:23;92835.50;;;10.73
28305;BMP280;15569;42.652;23.040;2023-02-24T02:42:41;92835.16;;;10.81
28305;BMP280;15569;42.652;23.040;2023-02-24T02:47:52;92837.06;;;10.92
28305;BMP280;15569;42.652;23.040;2023-02-24T02:50:40;92835.81;;;10.95
28305;BMP280;15569;42.652;23.040;2023-02-24T02:53:23;92831.94;;;10.84
28305;BMP280;15569;42.652;23.040;2023-02-24T02:56:12;92837.97;;;10.26
28305;BMP280;15569;42.652;23.040;2023-02-24T02:58:42;92835.25;;;10.40
28305;BMP280;15569;42.652;23.040;2023-02-24T03:01:11;92840.19;;;10.44
28305;BMP280;15569;42.652;23.040;2023-02-24T03:03:44;92821.25;;;10.46
28305;BMP280;15569;42.652;23.040;2023-02-24T03:06:14;92834.72;;;10.57
28305;BMP280;15569;42.652;23.040;2023-02-24T03:08:49;92834.00;;;10.57
28305;BMP280;15569;42.652;23.040;2023-02-24T03:11:17;92852.31;;;10.70
28305;BMP280;15569;42.652;23.040;2023-02-24T03:13:45;92844.97;;;10.72
28305;BMP280;15569;42.652;23.040;2023-02-24T03:16:15;92835.25;;;10.83
28305;BMP280;15569;42.652;23.040;2023-02-24T03:18:47;92835.88;;;10.81
28305;BMP280;15569;42.652;23.040;2023-02-24T03:21:33;92839.81;;;10.78
28305;BMP280;15569;42.652;23.040;2023-02-24T03:24:01;92832.34;;;10.79
28305;BMP280;15569;42.652;23.040;2023-02-24T03:29:43;92827.94;;;10.72
28305;BMP280;15569;42.652;23.040;2023-02-24T03:32:19;92824.00;;;10.75
28305;BMP280;15569;42.652;23.040;2023-02-24T03:34:59;92844.84;;;10.84
28305;BMP280;15569;42.652;23.040;2023-02-24T03:37:27;92848.56;;;10.77
28305;BMP280;15569;42.652;23.040;2023-02-24T03:39:56;92850.19;;;10.82
28305;BMP280;15569;42.652;23.040;2023-02-24T03:42:24;92846.59;;;10.93
28305;BMP280;15569;42.652;23.040;2023-02-24T03:44:50;92847.59;;;10.70
28305;BMP280;15569;42.652;23.040;2023-02-24T03:47:17;92839.56;;;10.45
28305;BMP280;15569;42.652;23.040;2023-02-24T03:49:45;92853.66;;;10.55
28305;BMP280;15569;42.652;23.040;2023-02-24T03:58:19;92850.75;;;10.10
28305;BMP280;15569;42.652;23.040;2023-02-24T04:01:00;92848.03;;;10.10
28305;BMP280;15569;42.652;23.040;2023-02-24T04:03:32;92855.84;;;9.91
28305;BMP280;15569;42.652;23.040;2023-02-24T04:06:22;92848.53;;;9.93
28305;BMP280;15569;42.652;23.040;2023-02-24T04:14:54;92841.09;;;10.35
28305;BMP280;15569;42.652;23.040;2023-02-24T04:17:43;92842.78;;;10.28
28305;BMP280;15569;42.652;23.040;2023-02-24T04:20:11;92838.69;;;10.13
28305;BMP280;15569;42.652;23.040;2023-02-24T04:22:42;92834.56;;;10.26
28305;BMP280;15569;42.652;23.040;2023-02-24T04:25:09;92844.78;;;10.41
28305;BMP280;15569;42.652;23.040;2023-02-24T04:27:39;92838.78;;;10.43
28305;BMP280;15569;42.652;23.040;2023-02-24T04:30:07;92830.28;;;10.50
28305;BMP280;15569;42.652;23.040;2023-02-24T04:32:35;92828.28;;;10.51
28305;BMP280;15569;42.652;23.040;2023-02-24T04:35:06;92838.22;;;10.73
28305;BMP280;15569;42.652;23.040;2023-02-24T04:37:34;92831.47;;;10.74
28305;BMP280;15569;42.652;23.040;2023-02-24T04:40:00;92836.06;;;10.85
28305;BMP280;15569;42.652;23.040;2023-02-24T04:42:26;92825.88;;;10.86
28305;BMP280;15569;42.652;23.040;2023-02-24T04:44:52;92822.34;;;10.68
28305;BMP280;15569;42.652;23.040;2023-02-24T04:47:22;92832.25;;;10.77
28305;BMP280;15569;42.652;23.040;2023-02-24T04:49:48;92828.75;;;10.74
28305;BMP280;15569;42.652;23.040;2023-02-24T04:52:13;92832.72;;;10.87
28305;BMP280;15569;42.652;23.040;2023-02-24T04:54:40;92825.72;;;10.82
28305;BMP280;15569;42.652;23.040;2023-02-24T04:57:05;92817.69;;;10.70
28305;BMP280;15569;42.652;23.040;2023-02-24T04:59:32;92829.91;;;10.85
28305;BMP280;15569;42.652;23.040;2023-02-24T05:01:57;92826.16;;;10.76
28305;BMP280;15569;42.652;23.040;2023-02-24T05:04:26;92825.00;;;10.81
28305;BMP280;15569;42.652;23.040;2023-02-24T05:06:54;92822.19;;;10.79
28305;BMP280;15569;42.652;23.040;2023-02-24T05:09:22;92832.44;;;10.81
28305;BMP280;15569;42.652;23.040;2023-02-24T05:11:50;92829.81;;;10.83
28305;BMP280;15569;42.652;23.040;2023-02-24T05:14:18;92825.50;;;10.78
28305;BMP280;15569;42.652;23.040;2023-02-24T05:16:46;92824.56;;;10.87
28305;BMP280;15569;42.652;23.040;2023-02-24T05:19:14;92821.66;;;10.83
28305;BMP280;15569;42.652;23.040;2023-02-24T05:21:59;92819.94;;;10.89
28305;BMP280;15569;42.652;23.040;2023-02-24T05:24:27;92811.59;;;10.85
28305;BMP280;15569;42.652;23.040;2023-02-24T05:26:55;92823.47;;;10.92
28305;BMP280;15569;42.652;23.040;2023-02-24T05:29:29;92830.50;;;10.97
28305;BMP280;15569;42.652;23.040;2023-02-24T05:31:56;92834.72;;;11.00
28305;BMP280;15569;42.652;23.040;2023-02-24T05:34:29;92822.56;;;10.87
28305;BMP280;15569;42.652;23.040;2023-02-24T05:36:58;92837.09;;;10.78
28305;BMP280;15569;42.652;23.040;2023-02-24T05:39:26;92842.28;;;10.59
28305;BMP280;15569;42.652;23.040;2023-02-24T05:41:53;92846.88;;;10.70
28305;BMP280;15569;42.652;23.040;2023-02-24T05:44:22;92837.22;;;10.67
28305;BMP280;15569;42.652;23.040;2023-02-24T05:46:49;92835.34;;;10.56
28305;BMP280;15569;42.652;23.040;2023-02-24T05:49:20;92841.66;;;10.60
28305;BMP280;15569;42.652;23.040;2023-02-24T05:51:49;92848.09;;;10.67
28305;BMP280;15569;42.652;23.040;2023-02-24T05:54:26;92851.69;;;10.71
28305;BMP280;15569;42.652;23.040;2023-02-24T05:57:00;92847.25;;;10.78
28305;BMP280;15569;42.652;23.040;2023-02-24T05:59:25;92851.56;;;10.83
28305;BMP280;15569;42.652;23.040;2023-02-24T06:01:58;92851.28;;;10.77
28305;BMP280;15569;42.652;23.040;2023-02-24T06:04:24;92860.34;;;10.81
28305;BMP280;15569;42.652;23.040;2023-02-24T06:07:16;92857.84;;;10.72
28305;BMP280;15569;42.652;23.040;2023-02-24T06:09:50;92863.78;;;10.82
28305;BMP280;15569;42.652;23.040;2023-02-24T06:12:21;92862.97;;;10.79
28305;BMP280;15569;42.652;23.040;2023-02-24T06:14:47;92859.44;;;10.77
28305;BMP280;15569;42.652;23.040;2023-02-24T06:17:14;92848.16;;;10.69
28305;BMP280;15569;42.652;23.040;2023-02-24T06:19:42;92853.59;;;10.69
28305;BMP280;15569;42.652;23.040;2023-02-24T06:22:11;92855.72;;;10.84
28305;BMP280;15569;42.652;23.040;2023-02-24T06:24:38;92844.88;;;10.70
28305;BMP280;15569;42.652;23.040;2023-02-24T06:27:09;92851.38;;;10.79
28305;BMP280;15569;42.652;23.040;2023-02-24T06:29:39;92854.09;;;10.79
28305;BMP280;15569;42.652;23.040;2023-02-24T06:32:05;92850.34;;;10.86
28305;BMP280;15569;42.652;23.040;2023-02-24T06:34:36;92838.38;;;10.91
28305;BMP280;15569;42.652;23.040;2023-02-24T06:37:02;92829.06;;;10.96
28305;BMP280;15569;42.652;23.040;2023-02-24T06:39:31;92836.94;;;11.03
28305;BMP280;15569;42.652;23.040;2023-02-24T06:41:57;92832.34;;;11.08
28305;BMP280;15569;42.652;23.040;2023-02-24T06:44:29;92842.78;;;11.27
28305;BMP280;15569;42.652;23.040;2023-02-24T06:46:54;92830.75;;;11.32
28305;BMP280;15569;42.652;23.040;2023-02-24T06:49:20;92837.25;;;11.41
28305;BMP280;15569;42.652;23.040;2023-02-24T06:51:47;92834.25;;;11.35
28305;BMP280;15569;42.652;23.040;2023-02-24T06:54:12;92826.72;;;11.33
28305;BMP280;15569;42.652;23.040;2023-02-24T06:56:39;92852.97;;;10.97
28305;BMP280;15569;42.652;23.040;2023-02-24T06:59:06;92849.13;;;10.60
28305;BMP280;15569;42.652;23.040;2023-02-24T07:01:34;92862.22;;;10.09
28305;BMP280;15569;42.652;23.040;2023-02-24T07:04:09;92867.81;;;9.72
28305;BMP280;15569;42.652;23.040;2023-02-24T07:06:37;92876.03;;;9.88
28305;BMP280;15569;42.652;23.040;2023-02-24T07:09:07;92863.28;;;9.77
28305;BMP280;15569;42.652;23.040;2023-02-24T07:11:33;92858.16;;;9.96
28305;BMP280;15569;42.652;23.040;2023-02-24T07:14:00;92853.56;;;10.12
28305;BMP280;15569;42.652;23.040;2023-02-24T07:16:26;92865.66;;;10.23
28305;BMP280;15569;42.652;23.040;2023-02-24T07:19:02;92862.22;;;10.22
28305;BMP280;15569;42.652;23.040;2023-02-24T07:21:29;92847.44;;;10.25
28305;BMP280;15569;42.652;23.040;2023-02-24T07:24:04;92859.31;;;10.32
28305;BMP280;15569;42.652;23.040;2023-02-24T07:26:30;92841.50;;;10.43
28305;BMP280;15569;42.652;23.040;2023-02-24T07:28:55;92849.03;;;10.58
28305;BMP280;15569;42.652;23.040;2023-02-24T07:31:21;92854.28;;;10.83
28305;BMP280;15569;42.652;23.040;2023-02-24T07:33:52;92849.13;;;10.89
28305;BMP280;15569;42.652;23.040;2023-02-24T07:36:19;92838.88;;;10.87
28305;BMP280;15569;42.652;23.040;2023-02-24T07:38:50;92850.41;;;11.01
28305;BMP280;15569;42.652;23.040;2023-02-24T07:41:21;92843.31;;;11.10
28305;BMP280;15569;42.652;23.040;2023-02-24T07:43:51;92824.19;;;11.08
28305;BMP280;15569;42.652;23.040;2023-02-24T07:46:22;92837.16;;;11.23
28305;BMP280;15569;42.652;23.040;2023-02-24T07:48:53;92827.75;;;11.26
28305;BMP280;15569;42.652;23.040;2023-02-24T07:51:24;92831.28;;;11.29
28305;BMP280;15569;42.652;23.040;2023-02-24T07:53:55;92829.97;;;11.45
28305;BMP280;15569;42.652;23.040;2023-02-24T07:56:22;92820.94;;;11.56
28305;BMP280;15569;42.652;23.040;2023-02-24T07:59:02;92812.88;;;11.58
28305;BMP280;15569;42.652;23.040;2023-02-24T08:01:29;92823.22;;;11.62
28305;BMP280;15569;42.652;23.040;2023-02-24T08:04:02;92825.34;;;11.79
28305;BMP280;15569;42.652;23.040;2023-02-24T08:06:34;92810.22;;;11.92
28305;BMP280;15569;42.652;23.040;2023-02-24T08:09:07;92821.44;;;12.00
28305;BMP280;15569;42.652;23.040;2023-02-24T08:11:48;92818.97;;;12.21
28305;BMP280;15569;42.652;23.040;2023-02-24T08:14:27;92807.94;;;12.02
28305;BMP280;15569;42.652;23.040;2023-02-24T08:17:01;92814.47;;;12.12
28305;BMP280;15569;42.652;23.040;2023-02-24T08:19:32;92818.06;;;11.07
28305;BMP280;15569;42.652;23.040;2023-02-24T08:22:00;92810.88;;;11.14
28305;BMP280;15569;42.652;23.040;2023-02-24T08:24:50;92804.41;;;11.21
28305;BMP280;15569;42.652;23.040;2023-02-24T08:27:18;92797.91;;;11.28
28305;BMP280;15569;42.652;23.040;2023-02-24T08:29:47;92804.38;;;11.66
28305;BMP280;15569;42.652;23.040;2023-02-24T08:32:39;92806.88;;;11.62
28305;BMP280;15569;42.652;23.040;2023-02-24T08:35:15;92792.66;;;11.63
28305;BMP280;15569;42.652;23.040;2023-02-24T08:38:11;92806.41;;;12.14
28305;BMP280;15569;42.652;23.040;2023-02-24T08:40:44;92803.28;;;12.37
28305;BMP280;15569;42.652;23.040;2023-02-24T08:57:56;92793.56;;;13.40
28305;BMP280;15569;42.652;23.040;2023-02-24T09:00:27;92808.91;;;13.86
28305;BMP280;15569;42.652;23.040;2023-02-24T09:03:14;92806.91;;;14.08
28305;BMP280;15569;42.652;23.040;2023-02-24T09:06:17;92808.50;;;13.19
28305;BMP280;15569;42.652;23.040;2023-02-24T09:08:42;92797.59;;;13.76
28305;BMP280;15569;42.652;23.040;2023-02-24T09:11:13;92796.34;;;13.79
28305;BMP280;15569;42.652;23.040;2023-02-24T09:13:44;92804.75;;;13.28
28305;BMP280;15569;42.652;23.040;2023-02-24T09:16:19;92800.47;;;13.61
28305;BMP280;15569;42.652;23.040;2023-02-24T09:18:48;92793.19;;;12.57
28305;BMP280;15569;42.652;23.040;2023-02-24T09:21:33;92804.88;;;12.27
28305;BMP280;15569;42.652;23.040;2023-02-24T09:24:15;92794.34;;;12.52
28305;BMP280;15569;42.652;23.040;2023-02-24T09:26:54;92801.66;;;12.15
28305;BMP280;15569;42.652;23.040;2023-02-24T09:29:28;92802.38;;;12.00
28305;BMP280;15569;42.652;23.040;2023-02-24T09:32:04;92804.25;;;11.64
28305;BMP280;15569;42.652;23.040;2023-02-24T09:34:38;92797.66;;;11.84
28305;BMP280;15569;42.652;23.040;2023-02-24T09:37:11;92800.00;;;12.08
28305;BMP280;15569;42.652;23.040;2023-02-24T09:39:50;92782.97;;;11.92
28305;BMP280;15569;42.652;23.040;2023-02-24T09:42:25;92789.16;;;12.25
28305;BMP280;15569;42.652;23.040;2023-02-24T09:44:54;92784.06;;;12.51
28305;BMP280;15569;42.652;23.040;2023-02-24T09:52:39;92770.81;;;12.96
28305;BMP280;15569;42.652;23.040;2023-02-24T09:55:39;92764.19;;;12.31
28305;BMP280;15569;42.652;23.040;2023-02-24T09:58:46;92756.72;;;12.84
28305;BMP280;15569;42.652;23.040;2023-02-24T10:01:30;92754.47;;;13.16
28305;BMP280;15569;42.652;23.040;2023-02-24T10:06:56;92741.34;;;13.30
28305;BMP280;15569;42.652;23.040;2023-02-24T10:09:31;92738.88;;;12.81
28305;BMP280;15569;42.652;23.040;2023-02-24T10:12:01;92739.91;;;12.72
28305;BMP280;15569;42.652;23.040;2023-02-24T10:14:38;92734.56;;;12.94
28305;BMP280;15569;42.652;23.040;2023-02-24T10:17:16;92715.41;;;12.56
28305;BMP280;15569;42.652;23.040;2023-02-24T10:19:49;92725.00;;;12.75
28305;BMP280;15569;42.652;23.040;2023-02-24T10:22:51;92726.41;;;13.13
28305;BMP280;15569;42.652;23.040;2023-02-24T10:25:28;92723.81;;;12.80
28305;BMP280;15569;42.652;23.040;2023-02-24T10:33:23;92715.59;;;13.55
28305;BMP280;15569;42.652;23.040;2023-02-24T10:36:19;92704.06;;;13.56
28305;BMP280;15569;42.652;23.040;2023-02-24T10:38:46;92695.34;;;14.03
28305;BMP280;15569;42.652;23.040;2023-02-24T10:41:15;92683.22;;;13.67
28305;BMP280;15569;42.652;23.040;2023-02-24T10:43:52;92688.41;;;14.00
28305;BMP280;15569;42.652;23.040;2023-02-24T10:46:30;92681.47;;;14.85
28305;BMP280;15569;42.652;23.040;2023-02-24T10:49:02;92650.31;;;15.22
28305;BMP280;15569;42.652;23.040;2023-02-24T10:51:31;92676.63;;;14.84
28305;BMP280;15569;42.652;23.040;2023-02-24T10:54:10;92669.03;;;15.06
28305;BMP280;15569;42.652;23.040;2023-02-24T10:56:54;92649.47;;;15.41
28305;BMP280;15569;42.652;23.040;2023-02-24T10:59:42;92660.91;;;14.84
28305;BMP280;15569;42.652;23.040;2023-02-24T11:02:24;92664.63;;;14.48
28305;BMP280;15569;42.652;23.040;2023-02-24T11:05:12;92657.28;;;15.01
28305;BMP280;15569;42.652;23.040;2023-02-24T11:08:17;92649.59;;;14.25
28305;BMP280;15569;42.652;23.040;2023-02-24T11:11:17;92640.50;;;14.64
28305;BMP280;15569;42.652;23.040;2023-02-24T11:14:00;92635.28;;;14.97
28305;BMP280;15569;42.652;23.040;2023-02-24T11:16:52;92625.00;;;14.72
28305;BMP280;15569;42.652;23.040;2023-02-24T11:19:49;92624.00;;;14.62
28305;BMP280;15569;42.652;23.040;2023-02-24T11:22:30;92620.91;;;14.26
28305;BMP280;15569;42.652;23.040;2023-02-24T11:25:03;92622.25;;;14.96
28305;BMP280;15569;42.652;23.040;2023-02-24T11:27:29;92613.53;;;14.30
28305;BMP280;15569;42.652;23.040;2023-02-24T11:30:14;92609.44;;;15.02
28305;BMP280;15569;42.652;23.040;2023-02-24T11:32:57;92600.19;;;15.15
28305;BMP280;15569;42.652;23.040;2023-02-24T11:35:37;92606.88;;;15.36
28305;BMP280;15569;42.652;23.040;2023-02-24T11:39:24;92598.19;;;15.44
28305;BMP280;15569;42.652;23.040;2023-02-24T11:41:19;92590.19;;;15.00
28305;BMP280;15569;42.652;23.040;2023-02-24T11:43:56;92579.00;;;14.90
28305;BMP280;15569;42.652;23.040;2023-02-24T11:46:38;92586.38;;;13.91
28305;BMP280;15569;42.652;23.040;2023-02-24T11:49:15;92579.28;;;14.06
28305;BMP280;15569;42.652;23.040;2023-02-24T11:51:44;92560.88;;;13.63
28305;BMP280;15569;42.652;23.040;2023-02-24T11:54:12;92574.50;;;13.61
28305;BMP280;15569;42.652;23.040;2023-02-24T11:56:42;92559.59;;;13.88
28305;BMP280;15569;42.652;23.040;2023-02-24T11:59:32;92570.56;;;13.25
28305;BMP280;15569;42.652;23.040;2023-02-24T12:07:38;92568.25;;;13.37
28305;BMP280;15569;42.652;23.040;2023-02-24T12:12:40;92552.91;;;13.47
28305;BMP280;15569;42.652;23.040;2023-02-24T12:15:27;92561.44;;;13.38
28305;BMP280;15569;42.652;23.040;2023-02-24T12:20:43;92560.09;;;13.39
28305;BMP280;15569;42.652;23.040;2023-02-24T12:23:25;92577.84;;;13.18
28305;BMP280;15569;42.652;23.040;2023-02-24T12:29:06;92574.75;;;12.32
28305;BMP280;15569;42.652;23.040;2023-02-24T12:34:29;92551.03;;;14.68
28305;BMP280;15569;42.652;23.040;2023-02-24T12:42:33;92533.13;;;16.73
28305;BMP280;15569;42.652;23.040;2023-02-24T12:50:48;92527.03;;;16.41
28305;BMP280;15569;42.652;23.040;2023-02-24T12:53:31;92516.63;;;16.33
28305;BMP280;15569;42.652;23.040;2023-02-24T12:56:20;92524.72;;;16.27
28305;BMP280;15569;42.652;23.040;2023-02-24T12:58:52;92528.06;;;16.24
28305;BMP280;15569;42.652;23.040;2023-02-24T13:01:29;92505.19;;;16.45
28305;BMP280;15569;42.652;23.040;2023-02-24T13:06:51;92512.38;;;17.01
28305;BMP280;15569;42.652;23.040;2023-02-24T13:09:27;92509.09;;;17.09
28305;BMP280;15569;42.652;23.040;2023-02-24T13:14:30;92499.94;;;16.96
28305;BMP280;15569;42.652;23.040;2023-02-24T13:19:38;92488.47;;;16.68
28305;BMP280;15569;42.652;23.040;2023-02-24T13:22:07;92493.81;;;16.60
28305;BMP280;15569;42.652;23.040;2023-02-24T13:24:56;92489.81;;;16.65
28305;BMP280;15569;42.652;23.040;2023-02-24T13:27:24;92494.47;;;16.61
28305;BMP280;15569;42.652;23.040;2023-02-24T13:29:52;92495.56;;;16.46
28305;BMP280;15569;42.652;23.040;2023-02-24T13:32:38;92474.94;;;16.07
28305;BMP280;15569;42.652;23.040;2023-02-24T13:37:38;92476.88;;;16.36
28305;BMP280;15569;42.652;23.040;2023-02-24T13:42:59;92485.13;;;16.36
28305;BMP280;15569;42.652;23.040;2023-02-24T13:50:40;92487.44;;;15.82
28305;BMP280;15569;42.652;23.040;2023-02-24T14:02:11;92477.41;;;16.64
28305;BMP280;15569;42.652;23.040;2023-02-24T14:04:50;92483.50;;;16.61
28305;BMP280;15569;42.652;23.040;2023-02-24T14:07:22;92497.75;;;16.51
28305;BMP280;15569;42.652;23.040;2023-02-24T14:09:56;92503.16;;;16.47
28305;BMP280;15569;42.652;23.040;2023-02-24T14:12:27;92509.38;;;17.27
28305;BMP280;15569;42.652;23.040;2023-02-24T14:14:54;92497.28;;;17.88
28305;BMP280;15569;42.652;23.040;2023-02-24T14:17:30;92494.78;;;15.74
28305;BMP280;15569;42.652;23.040;2023-02-24T14:22:46;92490.53;;;15.39
28305;BMP280;15569;42.652;23.040;2023-02-24T14:25:13;92490.06;;;15.47
28305;BMP280;15569;42.652;23.040;2023-02-24T14:27:42;92489.78;;;15.07
28305;BMP280;15569;42.652;23.040;2023-02-24T14:32:46;92488.38;;;14.78
28305;BMP280;15569;42.652;23.040;2023-02-24T14:35:22;92492.75;;;15.17
28305;BMP280;15569;42.652;23.040;2023-02-24T14:37:49;92493.31;;;14.58
28305;BMP280;15569;42.652;23.040;2023-02-24T14:40:14;92487.63;;;14.76
28305;BMP280;15569;42.652;23.040;2023-02-24T14:42:48;92489.31;;;14.89
28305;BMP280;15569;42.652;23.040;2023-02-24T14:45:25;92484.31;;;15.07
28305;BMP280;15569;42.652;23.040;2023-02-24T14:47:55;92481.00;;;15.10
28305;BMP280;15569;42.652;23.040;2023-02-24T14:50:31;92480.53;;;15.20
28305;BMP280;15569;42.652;23.040;2023-02-24T14:53:04;92477.31;;;15.29
28305;BMP280;15569;42.652;23.040;2023-02-24T14:55:39;92465.16;;;15.37
28305;BMP280;15569;42.652;23.040;2023-02-24T14:58:29;92467.34;;;15.42
28305;BMP280;15569;42.652;23.040;2023-02-24T15:01:06;92482.25;;;15.65
28305;BMP280;15569;42.652;23.040;2023-02-24T15:03:44;92480.72;;;15.58
28305;BMP280;15569;42.652;23.040;2023-02-24T15:06:21;92477.47;;;15.65
28305;BMP280;15569;42.652;23.040;2023-02-24T15:08:54;92477.38;;;15.61
28305;BMP280;15569;42.652;23.040;2023-02-24T15:11:24;92475.06;;;15.20
28305;BMP280;15569;42.652;23.040;2023-02-24T15:13:59;92463.66;;;14.49
28305;BMP280;15569;42.652;23.040;2023-02-24T15:16:28;92462.78;;;14.42
28305;BMP280;15569;42.652;23.040;2023-02-24T15:18:58;92473.25;;;14.75
28305;BMP280;15569;42.652;23.040;2023-02-24T15:21:29;92472.34;;;14.94
28305;BMP280;15569;42.652;23.040;2023-02-24T15:24:03;92462.69;;;14.91
28305;BMP280;15569;42.652;23.040;2023-02-24T15:26:40;92471.00;;;14.93
28305;BMP280;15569;42.652;23.040;2023-02-24T15:29:13;92469.16;;;14.76
28305;BMP280;15569;42.652;23.040;2023-02-24T15:31:38;92469.97;;;14.81
28305;BMP280;15569;42.652;23.040;2023-02-24T15:34:04;92466.00;;;14.86
28305;BMP280;15569;42.652;23.040;2023-02-24T15:36:34;92448.66;;;14.77
28305;BMP280;15569;42.652;23.040;2023-02-24T15:39:07;92461.22;;;14.86
28305;BMP280;15569;42.652;23.040;2023-02-24T15:41:42;92467.31;;;14.85
28305;BMP280;15569;42.652;23.040;2023-02-24T15:44:29;92475.06;;;14.92
28305;BMP280;15569;42.652;23.040;2023-02-24T15:46:57;92469.03;;;14.98
28305;BMP280;15569;42.652;23.040;2023-02-24T15:49:23;92455.59;;;14.80
28305;BMP280;15569;42.652;23.040;2023-02-24T15:51:51;92459.75;;;14.83
28305;BMP280;15569;42.652;23.040;2023-02-24T15:54:35;92463.97;;;14.88
28305;BMP280;15569;42.652;23.040;2023-02-24T15:57:02;92462.47;;;14.81
28305;BMP280;15569;42.652;23.040;2023-02-24T15:59:29;92449.38;;;14.78
28305;BMP280;15569;42.652;23.040;2023-02-24T16:01:55;92457.00;;;14.81
28305;BMP280;15569;42.652;23.040;2023-02-24T16:04:22;92456.75;;;14.73
28305;BMP280;15569;42.652;23.040;2023-02-24T16:06:50;92452.53;;;14.68
28305;BMP280;15569;42.652;23.040;2023-02-24T16:09:29;92435.59;;;14.48
28305;BMP280;15569;42.652;23.040;2023-02-24T16:11:57;92453.50;;;14.53
28305;BMP280;15569;42.652;23.040;2023-02-24T16:14:24;92458.19;;;14.49
28305;BMP280;15569;42.652;23.040;2023-02-24T16:16:49;92464.25;;;14.45
28305;BMP280;15569;42.652;23.040;2023-02-24T16:19:16;92460.16;;;14.46
28305;BMP280;15569;42.652;23.040;2023-02-24T16:21:41;92468.47;;;14.50
28305;BMP280;15569;42.652;23.040;2023-02-24T16:24:07;92462.06;;;14.40
28305;BMP280;15569;42.652;23.040;2023-02-24T16:26:35;92457.75;;;14.32
28305;BMP280;15569;42.652;23.040;2023-02-24T16:29:02;92459.94;;;14.38
28305;BMP280;15569;42.652;23.040;2023-02-24T16:31:27;92461.81;;;14.31
28305;BMP280;15569;42.652;23.040;2023-02-24T16:33:53;92463.81;;;14.29
28305;BMP280;15569;42.652;23.040;2023-02-24T16:36:19;92449.56;;;14.09